createdAt,value
2023-05-22T00:01:44.290Z,12.40
2023-05-22T00:04:13.458Z,11.54
2023-05-22T00:06:42.670Z,11.25
2023-05-22T00:09:09.436Z,11.80
2023-05-22T00:11:36.599Z,11.88
2023-05-22T00:14:03.298Z,11.92
2023-05-22T00:16:56.439Z,12.34
2023-05-22T00:19:23.362Z,12.00
2023-05-22T00:21:51.419Z,12.07
2023-05-22T00:24:18.147Z,12.38
2023-05-22T00:26:44.844Z,11.97
2023-05-22T00:29:11.574Z,10.74
2023-05-22T00:31:38.290Z,11.93
2023-05-22T00:34:04.982Z,11.87
2023-05-22T00:36:31.659Z,10.92
2023-05-22T00:38:58.343Z,11.77
2023-05-22T00:41:25.009Z,12.07
2023-05-22T00:43:51.640Z,11.81
2023-05-22T00:46:23.153Z,11.59
2023-05-22T00:48:50.129Z,11.15
2023-05-22T00:51:16.822Z,11.80
2023-05-22T00:53:43.692Z,10.56
2023-05-22T00:56:10.456Z,11.97
2023-05-22T00:58:37.617Z,11.34
2023-05-22T01:01:05.523Z,11.50
2023-05-22T01:03:32.321Z,11.45
2023-05-22T01:05:59.070Z,11.33
2023-05-22T01:08:26.058Z,11.41
2023-05-22T01:11:10.428Z,11.82
2023-05-22T01:13:39.893Z,11.78
2023-05-22T01:16:07.181Z,11.77
2023-05-22T01:18:58.252Z,11.76
2023-05-22T01:21:32.934Z,11.53
2023-05-22T01:24:20.359Z,11.10
2023-05-22T01:26:57.853Z,11.74
2023-05-22T01:29:43.362Z,11.73
2023-05-22T01:32:10.697Z,11.71
2023-05-22T01:34:38.387Z,11.10
2023-05-22T01:37:05.355Z,11.63
2023-05-22T01:39:32.111Z,11.25
2023-05-22T01:41:59.063Z,11.25
2023-05-22T01:44:25.775Z,11.05
2023-05-22T01:46:52.483Z,9.98
2023-05-22T01:49:19.123Z,10.01
2023-05-22T01:51:52.941Z,11.51
2023-05-22T01:54:46.868Z,11.69
2023-05-22T01:57:25.259Z,10.87
2023-05-22T01:59:56.323Z,11.43
2023-05-22T02:02:23.661Z,11.03
2023-05-22T02:04:56.657Z,10.58
2023-05-22T02:07:25.123Z,11.26
2023-05-22T02:09:52.062Z,11.32
2023-05-22T02:12:19.329Z,11.06
2023-05-22T02:14:45.983Z,10.94
2023-05-22T02:17:12.830Z,10.94
2023-05-22T02:19:39.551Z,9.95
2023-05-22T02:22:06.272Z,10.40
2023-05-22T02:24:32.915Z,11.38
2023-05-22T02:26:59.606Z,10.24
2023-05-22T02:29:26.415Z,10.97
2023-05-22T02:31:54.492Z,10.38
2023-05-22T02:34:21.456Z,10.73
2023-05-22T02:36:48.181Z,11.23
2023-05-22T02:39:14.803Z,10.78
2023-05-22T02:41:41.448Z,10.58
2023-05-22T02:44:08.088Z,10.07
2023-05-22T02:46:34.772Z,10.97
2023-05-22T02:49:01.677Z,10.90
2023-05-22T02:51:28.310Z,10.63
2023-05-22T02:53:54.941Z,10.54
2023-05-22T02:56:22.227Z,10.12
2023-05-22T02:58:48.933Z,10.57
2023-05-22T03:01:15.668Z,10.71
2023-05-22T03:03:43.916Z,10.92
2023-05-22T03:06:10.793Z,10.11
2023-05-22T03:08:41.717Z,10.47
2023-05-22T03:11:08.406Z,10.15
2023-05-22T03:13:35.569Z,10.85
2023-05-22T03:16:02.648Z,10.47
2023-05-22T03:18:29.602Z,10.50
2023-05-22T03:20:56.311Z,10.65
2023-05-22T03:23:23.049Z,10.87
2023-05-22T03:25:49.685Z,10.08
2023-05-22T03:28:16.509Z,10.70
2023-05-22T03:30:43.141Z,10.89
2023-05-22T03:33:09.906Z,11.03
2023-05-22T03:35:36.789Z,10.89
2023-05-22T03:38:03.419Z,11.01
2023-05-22T03:40:30.064Z,11.04
2023-05-22T03:42:56.754Z,10.77
2023-05-22T03:45:24.418Z,11.02
2023-05-22T03:47:51.148Z,11.30
2023-05-22T03:50:18.085Z,11.08
2023-05-22T03:52:44.734Z,11.09
2023-05-22T03:55:11.421Z,11.52
2023-05-22T03:57:38.084Z,11.10
2023-05-22T04:00:12.506Z,10.09
2023-05-22T04:02:39.309Z,11.42
2023-05-22T04:05:10.111Z,11.54
2023-05-22T04:07:37.146Z,11.74
2023-05-22T04:10:04.909Z,11.64
2023-05-22T04:12:31.806Z,11.32
2023-05-22T04:14:58.461Z,12.20
2023-05-22T04:17:26.667Z,10.80
2023-05-22T04:19:53.321Z,11.82
2023-05-22T04:22:20.093Z,10.73
2023-05-22T04:24:49.329Z,11.71
2023-05-22T04:27:16.229Z,11.72
2023-05-22T04:29:44.999Z,12.24
2023-05-22T04:32:11.700Z,11.95
2023-05-22T04:34:38.420Z,13.00
2023-05-22T04:37:05.521Z,13.05
2023-05-22T04:39:32.211Z,13.06
2023-05-22T04:41:58.910Z,13.47
2023-05-22T04:44:25.652Z,13.30
2023-05-22T04:46:52.417Z,14.63
2023-05-22T04:49:19.313Z,15.71
2023-05-22T04:51:46.360Z,17.13
2023-05-22T04:54:13.083Z,17.27
2023-05-22T04:56:39.737Z,19.85
2023-05-22T04:59:09.293Z,20.26
2023-05-22T05:01:38.052Z,21.63
2023-05-22T05:04:05.058Z,22.01
2023-05-22T05:06:31.882Z,20.80
2023-05-22T05:08:58.892Z,20.91
2023-05-22T05:11:26.064Z,21.28
2023-05-22T05:13:52.834Z,21.52
2023-05-22T05:16:20.818Z,22.95
2023-05-22T05:18:47.698Z,23.31
2023-05-22T05:21:14.426Z,24.27
2023-05-22T05:23:41.389Z,24.93
2023-05-22T05:26:07.998Z,25.91
2023-05-22T05:28:34.888Z,26.92
2023-05-22T05:31:01.914Z,27.19
2023-05-22T05:33:28.828Z,27.48
2023-05-22T05:35:55.715Z,28.11
2023-05-22T05:38:22.613Z,29.12
2023-05-22T05:40:49.284Z,29.56
2023-05-22T05:43:16.049Z,30.53
2023-05-22T05:45:44.006Z,31.38
2023-05-22T05:48:11.998Z,32.15
2023-05-22T05:50:39.205Z,32.88
2023-05-22T05:53:06.458Z,33.46
2023-05-22T05:55:34.551Z,33.89
2023-05-22T05:58:01.401Z,33.37
2023-05-22T06:00:28.305Z,35.31
2023-05-22T06:02:55.217Z,35.83
2023-05-22T06:05:23.214Z,36.56
2023-05-22T06:07:49.993Z,36.89
2023-05-22T06:10:16.686Z,37.47
2023-05-22T06:12:43.459Z,37.99
2023-05-22T06:15:13.110Z,38.27
2023-05-22T06:17:40.282Z,38.52
2023-05-22T06:20:08.284Z,37.87
2023-05-22T06:22:34.973Z,39.18
2023-05-22T06:25:01.626Z,39.32
2023-05-22T06:27:28.463Z,39.42
2023-05-22T06:29:56.518Z,39.47
2023-05-22T06:32:23.388Z,40.22
2023-05-22T06:34:50.172Z,40.18
2023-05-22T06:37:16.989Z,40.52
2023-05-22T06:39:43.654Z,40.30
2023-05-22T06:42:10.387Z,41.27
2023-05-22T06:44:37.123Z,42.09
2023-05-22T06:47:03.914Z,40.93
2023-05-22T06:49:30.913Z,42.12
2023-05-22T06:51:57.608Z,41.89
2023-05-22T06:54:24.292Z,41.50
2023-05-22T06:56:51.078Z,40.43
2023-05-22T06:59:17.944Z,39.63
2023-05-22T07:01:44.763Z,39.36
2023-05-22T07:04:13.600Z,38.18
2023-05-22T07:06:41.572Z,35.71
2023-05-22T07:09:08.696Z,35.24
2023-05-22T07:11:38.144Z,34.78
2023-05-22T07:14:05.075Z,33.66
2023-05-22T07:16:31.972Z,32.69
2023-05-22T07:18:58.727Z,30.83
2023-05-22T07:21:25.488Z,31.17
2023-05-22T07:23:52.531Z,29.83
2023-05-22T07:26:19.383Z,29.72
2023-05-22T07:28:46.042Z,29.24
2023-05-22T07:31:39.063Z,29.25
2023-05-22T07:34:06.145Z,28.56
2023-05-22T07:36:36.838Z,28.16
2023-05-22T07:39:05.222Z,26.53
2023-05-22T07:41:32.086Z,26.78
2023-05-22T07:43:58.830Z,26.25
2023-05-22T07:46:25.665Z,26.40
2023-05-22T07:48:52.393Z,25.11
2023-05-22T07:51:19.269Z,25.54
2023-05-22T07:53:46.005Z,25.63
2023-05-22T07:56:13.476Z,25.57
2023-05-22T07:58:40.192Z,24.58
2023-05-22T08:01:09.925Z,25.55
2023-05-22T08:03:36.925Z,25.07
2023-05-22T08:06:04.235Z,25.23
2023-05-22T08:08:32.110Z,24.49
2023-05-22T08:13:28.450Z,24.07
2023-05-22T08:16:00.287Z,23.73
2023-05-22T08:18:29.267Z,24.97
2023-05-22T08:20:56.492Z,24.50
2023-05-22T08:23:23.198Z,24.76
2023-05-22T08:25:50.375Z,24.42
2023-05-22T08:28:17.232Z,24.86
2023-05-22T08:30:44.320Z,24.34
2023-05-22T08:33:12.083Z,24.58
2023-05-22T08:35:39.349Z,24.87
2023-05-22T08:38:06.208Z,24.22
2023-05-22T08:40:37.101Z,22.74
2023-05-22T08:43:05.113Z,24.93
2023-05-22T08:45:34.206Z,23.51
2023-05-22T08:48:06.188Z,24.89
2023-05-22T08:50:33.096Z,24.88
2023-05-22T08:53:02.216Z,24.84
2023-05-22T08:55:29.033Z,24.62
2023-05-22T08:57:56.988Z,24.94
2023-05-22T09:00:24.064Z,25.17
2023-05-22T09:02:51.153Z,24.54
2023-05-22T09:05:17.880Z,24.80
2023-05-22T09:07:45.241Z,23.74
2023-05-22T09:10:11.978Z,25.13
2023-05-22T09:12:38.692Z,24.66
2023-05-22T09:15:11.905Z,25.06
2023-05-22T09:17:41.735Z,24.84
2023-05-22T09:20:10.487Z,24.05
2023-05-22T09:22:40.558Z,24.55
2023-05-22T09:25:07.887Z,23.51
2023-05-22T09:27:34.753Z,23.67
2023-05-22T09:30:01.558Z,23.89
2023-05-22T09:32:29.853Z,24.19
2023-05-22T09:35:02.399Z,23.68
2023-05-22T09:37:29.692Z,24.17
2023-05-22T09:39:56.704Z,23.77
2023-05-22T09:42:25.337Z,24.00
2023-05-22T09:44:52.097Z,23.47
2023-05-22T09:47:18.903Z,23.51
2023-05-22T09:49:45.994Z,23.81
2023-05-22T09:52:13.122Z,23.73
2023-05-22T09:54:51.214Z,23.64
2023-05-22T09:57:20.618Z,23.28
2023-05-22T09:59:54.617Z,23.45
2023-05-22T10:02:25.674Z,22.79
2023-05-22T10:04:55.339Z,23.36
2023-05-22T10:07:22.884Z,22.37
2023-05-22T10:09:52.749Z,23.47
2023-05-22T10:12:21.306Z,22.55
2023-05-22T10:14:48.057Z,23.70
2023-05-22T10:17:16.965Z,23.49
2023-05-22T10:19:44.739Z,23.44
2023-05-22T10:22:16.372Z,23.43
2023-05-22T10:24:43.200Z,23.61
2023-05-22T10:27:09.836Z,23.65
2023-05-22T10:29:40.470Z,23.27
2023-05-22T10:32:15.578Z,23.88
2023-05-22T10:35:06.672Z,23.53
2023-05-22T10:37:43.546Z,23.81
2023-05-22T10:40:12.100Z,23.00
2023-05-22T10:42:38.759Z,23.30
2023-05-22T10:45:08.997Z,23.21
2023-05-22T10:47:35.937Z,23.72
2023-05-22T10:50:10.087Z,23.48
2023-05-22T10:52:37.424Z,22.71
2023-05-22T10:55:08.472Z,23.19
2023-05-22T10:57:35.661Z,23.46
2023-05-22T11:00:13.254Z,23.40
2023-05-22T11:02:41.881Z,22.35
2023-05-22T11:05:25.763Z,23.91
2023-05-22T11:07:52.593Z,23.31
2023-05-22T11:10:59.280Z,23.86
2023-05-22T11:13:29.098Z,23.57
2023-05-22T11:15:58.866Z,23.01
2023-05-22T11:18:28.688Z,23.12
2023-05-22T11:20:55.866Z,22.31
2023-05-22T11:23:23.928Z,23.92
2023-05-22T11:25:50.763Z,23.96
2023-05-22T11:28:17.400Z,23.82
2023-05-22T11:30:44.061Z,23.85
2023-05-22T11:33:10.959Z,24.06
2023-05-22T11:35:37.651Z,24.03
2023-05-22T11:38:04.891Z,23.86
2023-05-22T11:40:31.519Z,23.93
2023-05-22T11:42:58.178Z,24.09
2023-05-22T11:45:25.511Z,24.10
2023-05-22T11:47:52.305Z,24.05
2023-05-22T11:52:49.269Z,23.96
2023-05-22T11:55:15.983Z,23.97
2023-05-22T11:57:43.303Z,22.64
2023-05-22T12:00:10.948Z,24.20
2023-05-22T12:02:37.847Z,24.33
2023-05-22T12:05:05.529Z,23.98
2023-05-22T12:07:32.242Z,23.49
2023-05-22T12:09:59.060Z,23.48
2023-05-22T12:12:26.135Z,24.22
2023-05-22T12:14:53.260Z,24.47
2023-05-22T12:17:20.038Z,24.41
2023-05-22T12:19:47.547Z,24.25
2023-05-22T12:22:14.527Z,24.41
2023-05-22T12:24:47.578Z,24.55
2023-05-22T12:27:14.521Z,24.12
2023-05-22T12:29:41.760Z,24.17
2023-05-22T12:32:10.968Z,23.97
2023-05-22T12:34:45.545Z,24.02
2023-05-22T12:37:21.926Z,24.56
2023-05-22T12:39:56.353Z,24.57
2023-05-22T12:42:23.359Z,23.58
2023-05-22T12:44:52.215Z,23.80
2023-05-22T12:47:18.995Z,24.06
2023-05-22T12:49:45.735Z,23.93
2023-05-22T12:52:13.260Z,23.04
2023-05-22T12:54:40.036Z,24.08
2023-05-22T12:57:06.917Z,24.51
2023-05-22T12:59:34.074Z,23.99
2023-05-22T13:02:02.417Z,24.16
2023-05-22T13:04:29.395Z,23.97
2023-05-22T13:06:56.125Z,22.78
2023-05-22T13:09:22.978Z,23.03
2023-05-22T13:11:49.680Z,24.14
2023-05-22T13:14:16.580Z,23.78
2023-05-22T13:16:43.701Z,22.70
2023-05-22T13:19:10.615Z,23.42
2023-05-22T13:21:37.349Z,23.90
2023-05-22T13:24:04.507Z,24.18
2023-05-22T13:26:31.218Z,24.04
2023-05-22T13:28:57.876Z,23.85
2023-05-22T13:31:24.663Z,22.87
2023-05-22T13:33:51.491Z,23.71
2023-05-22T13:36:18.260Z,22.88
2023-05-22T13:38:44.975Z,23.93
2023-05-22T13:41:11.703Z,23.74
2023-05-22T13:43:38.328Z,23.73
2023-05-22T13:46:05.172Z,23.91
2023-05-22T13:48:31.904Z,23.93
2023-05-22T13:50:58.560Z,24.24
2023-05-22T13:53:25.280Z,23.95
2023-05-22T13:55:51.919Z,23.22
2023-05-22T13:58:18.716Z,23.27
2023-05-22T14:00:46.067Z,24.18
2023-05-22T14:03:17.588Z,23.83
2023-05-22T14:05:44.962Z,24.13
2023-05-22T14:08:11.681Z,22.83
2023-05-22T14:10:38.885Z,24.03
2023-05-22T14:13:05.794Z,24.17
2023-05-22T14:15:32.465Z,22.94
2023-05-22T14:17:59.359Z,23.24
2023-05-22T14:20:26.157Z,23.58
2023-05-22T14:22:57.556Z,23.48
2023-05-22T14:25:28.263Z,23.08
2023-05-22T14:27:54.955Z,23.71
2023-05-22T14:30:21.681Z,23.12
2023-05-22T14:32:48.742Z,23.73
2023-05-22T14:35:16.751Z,23.68
2023-05-22T14:37:43.891Z,23.59
2023-05-22T14:40:11.214Z,23.38
2023-05-22T14:42:38.039Z,23.23
2023-05-22T14:45:05.135Z,22.19
2023-05-22T14:47:31.825Z,22.70
2023-05-22T14:50:10.135Z,22.88
2023-05-22T14:52:45.152Z,22.22
2023-05-22T14:55:11.859Z,23.29
2023-05-22T14:57:38.552Z,23.11
2023-05-22T15:00:09.841Z,22.83
2023-05-22T15:02:37.261Z,22.98
2023-05-22T15:05:04.568Z,22.92
2023-05-22T15:07:43.145Z,22.88
2023-05-22T15:10:12.272Z,21.32
2023-05-22T15:12:39.028Z,22.39
2023-05-22T15:15:06.382Z,22.29
2023-05-22T15:17:33.125Z,22.84
2023-05-22T15:19:59.964Z,22.27
2023-05-22T15:22:26.624Z,22.87
2023-05-22T15:25:09.738Z,22.88
2023-05-22T15:27:36.406Z,22.62
2023-05-22T15:30:04.118Z,22.69
2023-05-22T15:32:32.541Z,22.71
2023-05-22T15:34:59.388Z,21.40
2023-05-22T15:37:26.045Z,22.65
2023-05-22T15:39:52.729Z,22.79
2023-05-22T15:42:19.376Z,21.27
2023-05-22T15:44:46.077Z,22.57
2023-05-22T15:47:12.773Z,22.44
2023-05-22T15:49:39.673Z,22.67
2023-05-22T15:52:06.478Z,22.16
2023-05-22T15:54:33.165Z,22.58
2023-05-22T15:56:59.816Z,21.89
2023-05-22T15:59:26.561Z,21.15
2023-05-22T16:01:53.208Z,22.07
2023-05-22T16:04:19.884Z,22.30
2023-05-22T16:06:46.556Z,22.40
2023-05-22T16:09:13.486Z,22.19
2023-05-22T16:11:40.352Z,21.77
2023-05-22T16:14:07.156Z,21.57
2023-05-22T16:16:56.768Z,22.25
2023-05-22T16:19:28.684Z,21.67
2023-05-22T16:21:55.491Z,21.87
2023-05-22T16:24:22.177Z,21.55
2023-05-22T16:26:48.944Z,21.66
2023-05-22T16:29:15.830Z,21.39
2023-05-22T16:31:42.741Z,21.61
2023-05-22T16:34:09.511Z,21.52
2023-05-22T16:36:36.186Z,21.60
2023-05-22T16:39:02.824Z,20.21
2023-05-22T16:41:29.473Z,21.52
2023-05-22T16:43:56.166Z,21.44
2023-05-22T16:46:22.929Z,21.70
2023-05-22T16:48:50.455Z,21.58
2023-05-22T16:51:17.509Z,21.27
2023-05-22T16:53:44.297Z,21.24
2023-05-22T16:56:11.143Z,20.64
2023-05-22T16:58:38.606Z,21.25
2023-05-22T17:01:06.504Z,20.87
2023-05-22T17:03:33.891Z,21.24
2023-05-22T17:06:01.183Z,20.77
2023-05-22T17:08:28.522Z,20.65
2023-05-22T17:10:56.288Z,20.11
2023-05-22T17:13:22.955Z,20.35
2023-05-22T17:15:50.205Z,20.56
2023-05-22T17:18:19.847Z,20.76
2023-05-22T17:20:49.503Z,19.83
2023-05-22T17:23:24.294Z,20.42
2023-05-22T17:26:00.177Z,20.41
2023-05-22T17:28:26.845Z,20.76
2023-05-22T17:30:54.171Z,20.57
2023-05-22T17:33:21.047Z,20.60
2023-05-22T17:35:47.882Z,19.91
2023-05-22T17:38:14.991Z,19.57
2023-05-22T17:40:45.347Z,19.64
2023-05-22T17:43:13.112Z,20.18
2023-05-22T17:45:40.221Z,19.63
2023-05-22T17:48:07.572Z,19.39
2023-05-22T17:50:34.302Z,19.72
2023-05-22T17:53:01.012Z,18.32
2023-05-22T17:55:27.841Z,19.14
2023-05-22T17:57:54.739Z,19.16
2023-05-22T18:00:21.438Z,18.32
2023-05-22T18:02:48.343Z,18.92
2023-05-22T18:05:15.434Z,18.73
2023-05-22T18:07:42.070Z,18.59
2023-05-22T18:10:09.156Z,18.44
2023-05-22T18:12:38.162Z,18.39
2023-05-22T18:15:05.815Z,18.20
2023-05-22T18:17:32.738Z,18.33
2023-05-22T18:19:59.481Z,17.91
2023-05-22T18:22:26.192Z,17.79
2023-05-22T18:24:52.850Z,17.70
2023-05-22T18:27:19.514Z,17.80
2023-05-22T18:29:46.255Z,17.54
2023-05-22T18:32:13.883Z,17.51
2023-05-22T18:34:41.115Z,17.13
2023-05-22T18:37:07.748Z,16.93
2023-05-22T18:39:34.409Z,16.49
2023-05-22T18:42:01.126Z,17.00
2023-05-22T18:44:27.843Z,16.91
2023-05-22T18:46:54.598Z,16.42
2023-05-22T18:49:21.333Z,15.95
2023-05-22T18:51:48.175Z,15.78
2023-05-22T18:54:14.926Z,15.96
2023-05-22T18:56:41.579Z,15.88
2023-05-22T18:59:08.248Z,16.04
2023-05-22T19:01:35.072Z,16.27
2023-05-22T19:04:01.787Z,15.54
2023-05-22T19:06:29.019Z,15.62
2023-05-22T19:08:55.746Z,15.72
2023-05-22T19:11:22.437Z,15.26
2023-05-22T19:13:49.236Z,15.34
2023-05-22T19:16:15.965Z,15.30
2023-05-22T19:18:42.723Z,15.23
2023-05-22T19:21:09.822Z,15.21
2023-05-22T19:23:36.983Z,15.08
2023-05-22T19:26:03.739Z,15.19
2023-05-22T19:28:32.280Z,15.17
2023-05-22T19:31:00.169Z,14.07
2023-05-22T19:33:27.678Z,14.19
2023-05-22T19:35:54.375Z,14.55
2023-05-22T19:38:21.116Z,14.28
2023-05-22T19:40:47.882Z,13.49
2023-05-22T19:43:14.680Z,14.00
2023-05-22T19:45:41.392Z,14.74
2023-05-22T19:48:08.277Z,13.93
2023-05-22T19:50:38.247Z,14.53
2023-05-22T19:53:05.431Z,14.60
2023-05-22T19:55:32.191Z,14.05
2023-05-22T19:57:58.879Z,14.03
2023-05-22T20:00:28.472Z,13.92
2023-05-22T20:02:56.116Z,14.28
2023-05-22T20:05:22.995Z,14.35
2023-05-22T20:07:49.704Z,14.01
2023-05-22T20:10:16.509Z,13.96
2023-05-22T20:12:43.219Z,14.07
2023-05-22T20:15:10.768Z,14.14
2023-05-22T20:17:38.593Z,13.35
2023-05-22T20:20:07.751Z,13.78
2023-05-22T20:22:34.569Z,12.22
2023-05-22T20:25:01.606Z,13.40
2023-05-22T20:27:28.440Z,13.73
2023-05-22T20:29:56.549Z,13.70
2023-05-22T20:32:24.140Z,13.58
2023-05-22T20:34:52.514Z,13.74
2023-05-22T20:37:23.147Z,13.85
2023-05-22T20:39:50.264Z,13.28
2023-05-22T20:42:17.799Z,13.17
2023-05-22T20:44:44.589Z,13.95
2023-05-22T20:47:11.342Z,12.86
2023-05-22T20:49:38.569Z,13.80
2023-05-22T20:52:05.876Z,13.64
2023-05-22T20:54:34.619Z,13.23
2023-05-22T20:57:02.029Z,13.13
2023-05-22T20:59:29.174Z,11.89
2023-05-22T21:01:57.237Z,13.62
2023-05-22T21:04:24.048Z,13.04
2023-05-22T21:06:51.092Z,13.38
2023-05-22T21:09:17.814Z,13.55
2023-05-22T21:11:44.571Z,13.78
2023-05-22T21:14:11.400Z,12.98
2023-05-22T21:16:39.546Z,13.24
2023-05-22T21:19:07.378Z,13.11
2023-05-22T21:21:35.766Z,13.63
2023-05-22T21:24:02.482Z,13.14
2023-05-22T21:26:29.160Z,13.05
2023-05-22T21:28:55.933Z,12.99
2023-05-22T21:31:35.529Z,12.88
2023-05-22T21:34:02.702Z,12.65
2023-05-22T21:36:29.418Z,13.04
2023-05-22T21:38:57.700Z,12.92
2023-05-22T21:41:24.376Z,12.89
2023-05-22T21:43:51.039Z,12.95
2023-05-22T21:46:17.756Z,12.20
2023-05-22T21:48:44.466Z,12.81
2023-05-22T21:51:11.123Z,12.04
2023-05-22T21:53:37.797Z,13.12
2023-05-22T21:56:04.481Z,11.92
2023-05-22T21:58:31.162Z,12.59
2023-05-22T22:00:57.763Z,12.16
2023-05-22T22:03:24.540Z,12.96
2023-05-22T22:05:51.253Z,13.02
2023-05-22T22:08:17.894Z,11.99
2023-05-22T22:10:44.660Z,12.51
2023-05-22T22:13:11.654Z,12.42
2023-05-22T22:15:39.140Z,12.35
2023-05-22T22:18:06.127Z,11.99
2023-05-22T22:20:43.620Z,12.58
2023-05-22T22:23:11.832Z,12.20
2023-05-22T22:25:39.252Z,12.48
2023-05-22T22:28:07.363Z,12.33
2023-05-22T22:30:35.454Z,12.45
2023-05-22T22:33:02.542Z,12.54
2023-05-22T22:35:29.466Z,12.31
2023-05-22T22:37:56.155Z,12.29
2023-05-22T22:40:23.845Z,12.26
2023-05-22T22:42:52.026Z,10.79
2023-05-22T22:45:18.704Z,12.02
2023-05-22T22:47:45.996Z,12.19
2023-05-22T22:50:12.776Z,12.38
2023-05-22T22:52:45.354Z,12.21
2023-05-22T22:55:12.377Z,12.27
2023-05-22T22:57:39.160Z,12.18
2023-05-22T23:00:06.636Z,12.19
2023-05-22T23:02:33.490Z,12.33
2023-05-22T23:05:00.364Z,11.66
2023-05-22T23:07:28.217Z,12.36
2023-05-22T23:09:54.920Z,11.54
2023-05-22T23:12:21.577Z,10.53
2023-05-22T23:14:50.522Z,11.73
2023-05-22T23:17:17.301Z,12.07
2023-05-22T23:19:44.398Z,11.96
2023-05-22T23:22:11.113Z,11.57
2023-05-22T23:24:37.783Z,11.85
2023-05-22T23:27:04.451Z,11.20
2023-05-22T23:29:31.164Z,11.80
2023-05-22T23:31:58.075Z,10.14
2023-05-22T23:34:25.030Z,11.86
2023-05-22T23:36:51.737Z,11.86
2023-05-22T23:39:18.378Z,10.14
2023-05-22T23:41:45.611Z,11.91
2023-05-22T23:44:12.411Z,11.35
2023-05-22T23:46:39.851Z,12.07
2023-05-22T23:49:07.452Z,11.46
2023-05-22T23:51:34.190Z,11.71
2023-05-22T23:54:01.200Z,10.16
2023-05-22T23:56:28.077Z,11.53
2023-05-22T23:58:54.745Z,11.11
